Time;durP1;ratioP1;P1;durP2;ratioP2;P2;SDS_P1;SDS_P2;PMS_P1;PMS_P2;Temp;Humidity;BMP_temperature;BMP_pressure;BME280_temperature;BME280_humidity;BME280_pressure;Samples;Min_cycle;Max_cycle;Signal;HPM_P1;HPM_P2
2021/05/15 00:01:46;;;;;;;5.80;4.45;;;;;;;;;;5036450;28;20025;-86
2021/05/15 00:04:12;;;;;;;7.22;3.75;;;;;;;;;;5025779;28;20025;-85
2021/05/15 00:06:38;;;;;;;5.00;3.50;;;;;;;;;;5023633;28;20119;-85
2021/05/15 00:09:05;;;;;;;5.57;3.53;;;;;;;;;;5030856;28;20523;-86
2021/05/15 00:11:31;;;;;;;4.53;3.40;;;;;;;;;;5036314;28;20033;-85
2021/05/15 00:13:57;;;;;;;4.15;3.33;;;;;;;;;;5026788;28;20386;-85
2021/05/15 00:16:23;;;;;;;5.88;3.95;;;;;;;;;;5019337;28;20026;-85
2021/05/15 00:18:49;;;;;;;5.50;4.07;;;;;;;;;;5035838;28;20024;-85
2021/05/15 00:21:15;;;;;;;4.32;3.38;;;;;;;;;;5054005;28;20530;-85
2021/05/15 00:23:41;;;;;;;4.10;3.10;;;;;;;;;;5026215;28;20120;-85
2021/05/15 00:26:07;;;;;;;4.18;3.45;;;;;;;;;;5044525;28;20060;-85
2021/05/15 00:28:33;;;;;;;4.28;3.33;;;;;;;;;;5065443;28;20033;-85
2021/05/15 00:30:59;;;;;;;5.00;3.30;;;;;;;;;;5069141;28;20025;-85
2021/05/15 00:33:25;;;;;;;5.25;3.65;;;;;;;;;;5054984;28;20119;-85
2021/05/15 00:35:51;;;;;;;5.20;3.65;;;;;;;;;;5071751;28;20480;-85
2021/05/15 00:38:18;;;;;;;6.50;3.88;;;;;;;;;;5071496;28;20028;-85
2021/05/15 00:40:44;;;;;;;4.32;3.40;;;;;;;;;;5069796;28;20083;-85
2021/05/15 00:43:10;;;;;;;4.97;3.38;;;;;;;;;;5074022;28;20025;-85
2021/05/15 00:45:36;;;;;;;5.40;3.17;;;;;;;;;;5063305;28;20035;-85
2021/05/15 00:48:03;;;;;;;8.60;3.25;;;;;;;;;;5052811;28;20075;-85
2021/05/15 00:50:29;;;;;;;6.45;3.10;;;;;;;;;;5056928;28;20123;-85
2021/05/15 00:52:56;;;;;;;4.15;2.83;;;;;;;;;;5061491;28;20048;-85
2021/05/15 00:55:22;;;;;;;3.35;2.90;;;;;;;;;;5054228;28;20025;-85
2021/05/15 00:57:48;;;;;;;3.97;3.38;;;;;;;;;;5064107;28;20041;-85
2021/05/15 01:00:15;;;;;;;4.13;3.28;;;;;;;;;;5054797;28;20071;-85
2021/05/15 01:02:41;;;;;;;5.18;3.85;;;;;;;;;;5066222;28;20017;-85
2021/05/15 01:05:09;;;;;;;4.50;3.42;;;;;;;;;;5053827;28;20048;-85
2021/05/15 01:07:36;;;;;;;5.80;4.00;;;;;;;;;;5062679;28;20119;-85
2021/05/15 01:10:03;;;;;;;8.85;3.60;;;;;;;;;;5067237;28;20024;-85
2021/05/15 01:12:30;;;;;;;5.45;3.28;;;;;;;;;;5071911;28;20039;-85
2021/05/15 01:14:56;;;;;;;5.40;3.58;;;;;;;;;;5067390;28;20020;-85
2021/05/15 01:17:22;;;;;;;7.65;4.13;;;;;;;;;;5059193;28;20471;-85
2021/05/15 01:19:48;;;;;;;5.47;3.60;;;;;;;;;;5059909;28;20028;-85
2021/05/15 01:22:15;;;;;;;7.22;4.20;;;;;;;;;;5062787;28;20037;-85
2021/05/15 01:24:44;;;;;;;5.00;3.95;;;;;;;;;;5061934;28;20066;-85
2021/05/15 01:27:13;;;;;;;5.28;3.78;;;;;;;;;;5059332;28;20150;-85
2021/05/15 01:29:39;;;;;;;5.07;3.70;;;;;;;;;;5055352;28;20045;-85
2021/05/15 01:32:05;;;;;;;7.97;4.15;;;;;;;;;;5066012;28;20056;-85
2021/05/15 01:34:31;;;;;;;7.43;4.13;;;;;;;;;;5057173;28;20064;-85
2021/05/15 01:36:57;;;;;;;6.18;4.30;;;;;;;;;;5055261;28;20075;-85
2021/05/15 01:39:23;;;;;;;5.18;3.53;;;;;;;;;;5062100;28;20196;-85
2021/05/15 01:41:50;;;;;;;5.90;3.15;;;;;;;;;;5055427;28;20473;-85
2021/05/15 01:44:16;;;;;;;5.68;2.95;;;;;;;;;;5056053;28;20029;-85
2021/05/15 01:46:43;;;;;;;3.17;2.80;;;;;;;;;;5062537;28;20025;-85
2021/05/15 01:49:09;;;;;;;6.22;3.60;;;;;;;;;;5053723;28;20127;-85
2021/05/15 01:51:34;;;;;;;4.68;3.42;;;;;;;;;;5073773;28;20511;-85
2021/05/15 01:54:00;;;;;;;6.30;3.65;;;;;;;;;;5062866;28;20404;-85
2021/05/15 01:56:28;;;;;;;5.30;3.35;;;;;;;;;;5052405;28;20504;-85
2021/05/15 01:58:55;;;;;;;5.95;3.47;;;;;;;;;;5055141;28;20032;-85
2021/05/15 02:01:21;;;;;;;7.82;3.83;;;;;;;;;;5070146;28;20029;-85
2021/05/15 02:03:48;;;;;;;5.18;3.80;;;;;;;;;;5055430;28;20020;-85
2021/05/15 02:06:14;;;;;;;7.25;3.85;;;;;;;;;;5061104;28;20025;-85
2021/05/15 02:08:42;;;;;;;3.85;3.35;;;;;;;;;;5069835;28;20060;-85
2021/05/15 02:11:09;;;;;;;4.75;3.53;;;;;;;;;;5068242;28;20032;-85
2021/05/15 02:13:35;;;;;;;4.05;3.38;;;;;;;;;;5058820;28;20071;-85
2021/05/15 02:16:02;;;;;;;6.30;3.40;;;;;;;;;;5070804;28;20079;-85
2021/05/15 02:18:28;;;;;;;4.00;3.17;;;;;;;;;;5070153;28;20491;-85
2021/05/15 02:20:54;;;;;;;4.40;3.28;;;;;;;;;;5065010;28;20120;-85
2021/05/15 02:23:20;;;;;;;4.40;3.00;;;;;;;;;;5054095;28;20119;-85
2021/05/15 02:25:47;;;;;;;3.50;2.92;;;;;;;;;;5058918;28;20523;-85
2021/05/15 02:28:14;;;;;;;3.92;3.28;;;;;;;;;;5058088;28;20568;-85
2021/05/15 02:30:40;;;;;;;5.68;3.33;;;;;;;;;;5065922;28;20082;-85
2021/05/15 02:33:06;;;;;;;4.40;2.75;;;;;;;;;;5068319;28;20053;-85
2021/05/15 02:35:32;;;;;;;7.25;4.03;;;;;;;;;;5065565;28;20032;-85
2021/05/15 02:37:58;;;;;;;4.90;3.22;;;;;;;;;;5065484;28;20039;-85
2021/05/15 02:40:24;;;;;;;4.60;3.20;;;;;;;;;;5057584;28;20419;-85
2021/05/15 02:42:52;;;;;;;4.45;3.60;;;;;;;;;;5051466;28;20029;-85
2021/05/15 02:45:19;;;;;;;9.10;3.45;;;;;;;;;;5064988;28;20020;-85
2021/05/15 02:47:45;;;;;;;4.47;3.20;;;;;;;;;;5071405;28;20020;-85
2021/05/15 02:50:12;;;;;;;4.63;3.08;;;;;;;;;;5054555;28;20596;-85
2021/05/15 02:52:38;;;;;;;5.68;3.45;;;;;;;;;;5062030;28;20407;-85
2021/05/15 02:55:04;;;;;;;6.78;3.67;;;;;;;;;;5057746;28;20024;-85
2021/05/15 02:57:30;;;;;;;5.65;3.40;;;;;;;;;;5072272;28;20031;-85
2021/05/15 02:59:56;;;;;;;4.88;3.95;;;;;;;;;;5061369;28;20107;-85
2021/05/15 03:02:22;;;;;;;5.88;3.95;;;;;;;;;;5060660;28;20432;-85
2021/05/15 03:04:48;;;;;;;5.10;3.55;;;;;;;;;;5068103;28;20040;-85
2021/05/15 03:07:14;;;;;;;6.25;4.00;;;;;;;;;;5071566;28;20067;-85
2021/05/15 03:09:43;;;;;;;4.10;3.55;;;;;;;;;;5069202;28;20480;-85
2021/05/15 03:12:09;;;;;;;5.18;3.75;;;;;;;;;;5062238;28;20548;-85
2021/05/15 03:14:35;;;;;;;6.05;3.78;;;;;;;;;;5055326;28;20115;-85
2021/05/15 03:17:01;;;;;;;7.75;4.07;;;;;;;;;;5072285;28;20067;-85
2021/05/15 03:19:27;;;;;;;5.90;3.40;;;;;;;;;;5055287;28;20267;-85
2021/05/15 03:21:53;;;;;;;6.20;2.95;;;;;;;;;;5061110;28;20025;-85
2021/05/15 03:24:19;;;;;;;4.90;2.30;;;;;;;;;;5057227;28;20045;-85
2021/05/15 03:26:45;;;;;;;3.30;1.75;;;;;;;;;;5059695;28;20055;-85
2021/05/15 03:29:11;;;;;;;4.53;1.98;;;;;;;;;;5054835;28;20037;-85
2021/05/15 03:31:37;;;;;;;4.13;2.40;;;;;;;;;;5061437;28;20056;-85
2021/05/15 03:34:03;;;;;;;4.53;2.28;;;;;;;;;;5065143;28;20021;-85
2021/05/15 03:36:29;;;;;;;3.13;2.30;;;;;;;;;;5065373;28;20029;-85
2021/05/15 03:38:55;;;;;;;3.25;2.78;;;;;;;;;;5062998;28;20051;-85
2021/05/15 03:41:21;;;;;;;4.47;2.85;;;;;;;;;;5070868;28;20029;-85
2021/05/15 03:43:47;;;;;;;4.03;2.95;;;;;;;;;;5062352;28;20021;-85
2021/05/15 03:46:13;;;;;;;3.00;2.70;;;;;;;;;;5072433;28;20059;-85
2021/05/15 03:48:39;;;;;;;7.10;2.85;;;;;;;;;;5074645;28;20041;-85
2021/05/15 03:51:05;;;;;;;5.43;2.75;;;;;;;;;;5075890;28;20048;-85
2021/05/15 03:53:31;;;;;;;3.28;2.75;;;;;;;;;;5069358;28;20491;-85
2021/05/15 03:55:57;;;;;;;6.63;3.53;;;;;;;;;;5067022;28;20043;-85
2021/05/15 03:58:23;;;;;;;5.18;3.20;;;;;;;;;;5070505;28;20036;-85
2021/05/15 04:00:49;;;;;;;4.20;3.20;;;;;;;;;;5067063;28;20021;-85
2021/05/15 04:03:15;;;;;;;4.00;2.53;;;;;;;;;;5056603;28;20040;-85
2021/05/15 04:05:40;;;;;;;3.78;2.10;;;;;;;;;;5053989;28;20021;-85
2021/05/15 04:08:06;;;;;;;6.13;2.38;;;;;;;;;;5069396;28;20422;-85
2021/05/15 04:10:33;;;;;;;6.53;2.50;;;;;;;;;;5064772;28;20029;-85
2021/05/15 04:13:05;;;;;;;3.63;2.88;;;;;;;;;;5075262;28;20036;-85
2021/05/15 04:15:41;;;;;;;5.03;2.92;;;;;;;;;;5063614;28;20388;-85
2021/05/15 04:18:14;;;;;;;3.40;2.53;;;;;;;;;;5071092;28;20040;-85
2021/05/15 04:20:44;;;;;;;3.38;2.78;;;;;;;;;;5074981;28;20391;-85
2021/05/15 04:23:11;;;;;;;6.68;3.22;;;;;;;;;;5054749;28;20032;-85
2021/05/15 04:25:37;;;;;;;4.97;3.20;;;;;;;;;;5058820;28;20132;-85
2021/05/15 04:28:04;;;;;;;4.32;3.03;;;;;;;;;;5036744;28;20032;-85
2021/05/15 04:30:31;;;;;;;3.90;3.05;;;;;;;;;;5024123;28;20051;-85
2021/05/15 04:32:57;;;;;;;3.88;2.80;;;;;;;;;;5023241;28;20126;-85
2021/05/15 04:35:23;;;;;;;5.22;2.95;;;;;;;;;;5037021;28;20021;-85
2021/05/15 04:37:52;;;;;;;4.53;3.13;;;;;;;;;;5047899;28;20037;-85
2021/05/15 04:40:18;;;;;;;4.55;3.00;;;;;;;;;;5034986;28;20029;-85
2021/05/15 04:42:44;;;;;;;3.50;2.85;;;;;;;;;;5025030;28;20112;-85
2021/05/15 04:45:11;;;;;;;6.07;3.20;;;;;;;;;;5032139;28;20107;-85
2021/05/15 04:47:37;;;;;;;3.28;2.50;;;;;;;;;;5036190;28;20228;-85
2021/05/15 04:50:04;;;;;;;3.78;2.80;;;;;;;;;;5036704;28;20059;-85
2021/05/15 04:52:30;;;;;;;4.47;3.00;;;;;;;;;;5054561;28;20029;-85
2021/05/15 04:54:56;;;;;;;4.03;3.20;;;;;;;;;;5021868;28;20021;-85
2021/05/15 04:57:22;;;;;;;7.50;4.10;;;;;;;;;;5024346;28;20064;-85
2021/05/15 04:59:48;;;;;;;6.70;3.33;;;;;;;;;;5054035;28;20118;-85
2021/05/15 05:02:14;;;;;;;7.65;3.80;;;;;;;;;;5054222;28;20024;-85
2021/05/15 05:04:40;;;;;;;6.35;3.97;;;;;;;;;;5054047;28;20025;-85
2021/05/15 05:07:06;;;;;;;7.00;4.00;;;;;;;;;;5031122;28;20124;-85
2021/05/15 05:09:32;;;;;;;7.38;4.22;;;;;;;;;;5029144;28;20107;-86
2021/05/15 05:11:58;;;;;;;6.50;3.90;;;;;;;;;;5024156;28;20029;-84
2021/05/15 05:14:25;;;;;;;7.30;4.60;;;;;;;;;;5026511;28;20024;-84
2021/05/15 05:16:54;;;;;;;8.35;4.80;;;;;;;;;;5055160;28;20067;-82
2021/05/15 05:19:21;;;;;;;9.10;4.75;;;;;;;;;;5056296;28;20083;-83
2021/05/15 05:21:47;;;;;;;6.45;4.85;;;;;;;;;;5055447;28;20510;-82
2021/05/15 05:24:13;;;;;;;10.00;6.22;;;;;;;;;;5021723;28;20029;-83
2021/05/15 05:26:39;;;;;;;7.20;5.15;;;;;;;;;;5062509;28;20094;-82
2021/05/15 05:29:09;;;;;;;8.68;5.63;;;;;;;;;;5060110;28;20029;-83
2021/05/15 05:31:43;;;;;;;8.55;6.40;;;;;;;;;;5064985;28;20029;-83
2021/05/15 05:34:09;;;;;;;10.30;7.03;;;;;;;;;;5056626;28;20063;-83
2021/05/15 05:36:36;;;;;;;11.68;7.47;;;;;;;;;;5074223;28;20059;-83
2021/05/15 05:39:04;;;;;;;16.88;8.45;;;;;;;;;;5072093;28;20111;-83
2021/05/15 05:41:30;;;;;;;11.75;8.18;;;;;;;;;;5069970;28;20025;-84
2021/05/15 05:43:56;;;;;;;11.57;8.32;;;;;;;;;;5058906;28;20441;-82
2021/05/15 05:46:23;;;;;;;11.10;8.07;;;;;;;;;;5072750;28;20024;-87
2021/05/15 05:48:49;;;;;;;10.18;7.38;;;;;;;;;;5073146;28;20016;-87
2021/05/15 05:51:15;;;;;;;11.75;7.30;;;;;;;;;;5064088;28;20090;-86
2021/05/15 05:53:41;;;;;;;13.40;8.20;;;;;;;;;;5068294;28;20040;-83
2021/05/15 05:56:07;;;;;;;9.65;7.10;;;;;;;;;;5052721;28;20384;-85
2021/05/15 05:58:33;;;;;;;16.08;8.13;;;;;;;;;;5056727;28;20020;-85
2021/05/15 06:01:00;;;;;;;13.55;9.18;;;;;;;;;;5067380;28;20518;-85
2021/05/15 06:03:26;;;;;;;10.77;7.50;;;;;;;;;;5057832;28;20029;-85
2021/05/15 06:05:52;;;;;;;11.63;7.32;;;;;;;;;;5067522;28;20048;-86
2021/05/15 06:08:18;;;;;;;13.48;7.80;;;;;;;;;;5071821;28;20111;-86
2021/05/15 06:10:46;;;;;;;10.00;7.40;;;;;;;;;;5070481;28;20499;-87
2021/05/15 06:13:13;;;;;;;8.57;6.13;;;;;;;;;;5062891;28;20016;-86
2021/05/15 06:15:39;;;;;;;11.40;7.55;;;;;;;;;;5059427;28;20040;-85
2021/05/15 06:18:05;;;;;;;8.63;6.45;;;;;;;;;;5055324;28;20033;-86
2021/05/15 06:20:31;;;;;;;9.82;6.20;;;;;;;;;;5064938;28;20060;-87
2021/05/15 06:22:57;;;;;;;9.10;5.72;;;;;;;;;;5059160;28;20044;-86
2021/05/15 06:25:23;;;;;;;10.60;6.22;;;;;;;;;;5061831;28;20078;-87
2021/05/15 06:27:50;;;;;;;8.05;5.78;;;;;;;;;;5070948;28;20476;-86
2021/05/15 06:30:16;;;;;;;9.32;5.50;;;;;;;;;;5073086;28;20039;-87
2021/05/15 06:32:42;;;;;;;8.55;5.68;;;;;;;;;;5061004;28;20550;-88
2021/05/15 06:35:09;;;;;;;7.15;5.55;;;;;;;;;;5072817;28;20056;-87
2021/05/15 06:37:34;;;;;;;9.05;5.18;;;;;;;;;;5054132;28;20069;-86
2021/05/15 06:40:01;;;;;;;5.68;5.07;;;;;;;;;;5064729;28;20078;-86
2021/05/15 06:42:27;;;;;;;9.40;4.88;;;;;;;;;;5068931;28;20124;-86
2021/05/15 06:44:53;;;;;;;5.85;3.92;;;;;;;;;;5073558;28;20020;-86
2021/05/15 06:47:19;;;;;;;6.93;4.40;;;;;;;;;;5062688;28;20028;-84
2021/05/15 06:49:45;;;;;;;9.18;4.32;;;;;;;;;;5065206;28;20028;-86
2021/05/15 06:52:12;;;;;;;6.60;3.95;;;;;;;;;;5052990;28;20695;-87
2021/05/15 06:54:38;;;;;;;6.38;4.32;;;;;;;;;;5052178;28;20063;-87
2021/05/15 06:57:06;;;;;;;5.30;4.22;;;;;;;;;;5056572;28;20032;-87
2021/05/15 06:59:32;;;;;;;8.25;4.18;;;;;;;;;;5067590;28;20021;-85
2021/05/15 07:01:58;;;;;;;4.82;3.70;;;;;;;;;;5058986;28;20039;-85
2021/05/15 07:04:25;;;;;;;6.00;4.28;;;;;;;;;;5068578;28;20469;-85
2021/05/15 07:06:51;;;;;;;8.57;5.03;;;;;;;;;;5071884;28;20553;-84
2021/05/15 07:09:16;;;;;;;5.40;3.83;;;;;;;;;;5076682;28;20021;-85
2021/05/15 07:11:42;;;;;;;7.20;4.43;;;;;;;;;;5073208;28;20427;-85
2021/05/15 07:14:08;;;;;;;7.15;4.50;;;;;;;;;;5070346;28;20051;-84
2021/05/15 07:16:34;;;;;;;5.55;4.78;;;;;;;;;;5063537;28;20037;-85
2021/05/15 07:19:00;;;;;;;8.00;4.35;;;;;;;;;;5063914;28;20024;-84
2021/05/15 07:21:26;;;;;;;6.63;4.75;;;;;;;;;;5068971;28;20048;-85
2021/05/15 07:23:52;;;;;;;8.23;5.10;;;;;;;;;;5075381;28;20541;-85
2021/05/15 07:26:18;;;;;;;7.32;4.70;;;;;;;;;;5062793;28;20049;-86
2021/05/15 07:28:44;;;;;;;5.88;4.55;;;;;;;;;;5063475;28;20072;-85
2021/05/15 07:31:10;;;;;;;9.68;4.75;;;;;;;;;;5065551;28;20020;-85
2021/05/15 07:33:37;;;;;;;7.95;5.45;;;;;;;;;;5063366;28;20530;-85
2021/05/15 07:36:03;;;;;;;11.02;6.35;;;;;;;;;;5064389;28;20025;-85
2021/05/15 07:38:29;;;;;;;11.05;5.80;;;;;;;;;;5061604;28;20040;-84
2021/05/15 07:40:55;;;;;;;9.10;5.50;;;;;;;;;;5059693;28;20016;-85
2021/05/15 07:43:26;;;;;;;7.53;5.30;;;;;;;;;;5072811;28;20479;-84
2021/05/15 07:45:52;;;;;;;6.25;4.57;;;;;;;;;;5069111;28;20059;-84
2021/05/15 07:48:28;;;;;;;7.95;5.35;;;;;;;;;;5061882;28;20111;-85
2021/05/15 07:50:54;;;;;;;6.40;5.00;;;;;;;;;;5072381;28;20052;-86
2021/05/15 07:53:20;;;;;;;7.30;5.28;;;;;;;;;;5072952;28;20075;-85
2021/05/15 07:55:46;;;;;;;9.75;5.70;;;;;;;;;;5070501;28;20021;-85
2021/05/15 07:58:12;;;;;;;7.38;5.38;;;;;;;;;;5068653;28;20031;-86
2021/05/15 08:00:38;;;;;;;11.43;5.43;;;;;;;;;;5066330;28;20029;-87
2021/05/15 08:03:04;;;;;;;7.65;5.90;;;;;;;;;;5068910;28;20020;-87
2021/05/15 08:05:30;;;;;;;9.65;5.65;;;;;;;;;;5068329;28;20115;-86
2021/05/15 08:07:56;;;;;;;8.68;5.45;;;;;;;;;;5075524;28;20052;-86
2021/05/15 08:10:22;;;;;;;8.55;5.57;;;;;;;;;;5075099;28;20037;-86
2021/05/15 08:12:48;;;;;;;9.40;5.55;;;;;;;;;;5074132;28;20024;-87
2021/05/15 08:15:14;;;;;;;11.30;6.68;;;;;;;;;;5062467;28;20460;-85
2021/05/15 08:17:40;;;;;;;10.50;6.45;;;;;;;;;;5058658;28;20184;-86
2021/05/15 08:20:06;;;;;;;7.57;4.90;;;;;;;;;;5061064;28;20048;-87
2021/05/15 08:22:32;;;;;;;9.18;5.30;;;;;;;;;;5058419;28;20029;-87
2021/05/15 08:24:58;;;;;;;10.10;6.25;;;;;;;;;;5065137;28;20020;-87
2021/05/15 08:27:25;;;;;;;8.20;5.40;;;;;;;;;;5031716;28;20056;-86
2021/05/15 08:29:52;;;;;;;11.75;6.18;;;;;;;;;;5052321;28;20087;-86
2021/05/15 08:32:18;;;;;;;9.95;6.78;;;;;;;;;;5022285;28;20071;-87
2021/05/15 08:34:44;;;;;;;8.75;6.40;;;;;;;;;;5029290;28;20712;-85
2021/05/15 08:37:10;;;;;;;10.63;5.90;;;;;;;;;;5035852;28;20025;-86
2021/05/15 08:39:36;;;;;;;7.75;5.15;;;;;;;;;;5026577;28;20033;-88
2021/05/15 08:42:02;;;;;;;8.10;5.55;;;;;;;;;;5033071;28;20029;-87
2021/05/15 08:44:29;;;;;;;8.23;6.10;;;;;;;;;;5029565;28;20409;-90
2021/05/15 08:46:56;;;;;;;6.55;4.60;;;;;;;;;;5034683;28;20067;-87
2021/05/15 08:49:23;;;;;;;10.38;5.28;;;;;;;;;;5036434;28;20142;-89
2021/05/15 08:51:52;;;;;;;5.50;4.05;;;;;;;;;;5033566;28;20040;-88
2021/05/15 08:54:19;;;;;;;6.47;4.50;;;;;;;;;;5030540;28;20068;-88
2021/05/15 08:56:45;;;;;;;6.53;4.88;;;;;;;;;;5022297;28;20032;-88
2021/05/15 08:59:11;;;;;;;8.23;4.90;;;;;;;;;;5018465;28;20044;-87
2021/05/15 09:01:37;;;;;;;6.38;4.85;;;;;;;;;;5025245;28;20053;-87
2021/05/15 09:04:03;;;;;;;8.30;5.88;;;;;;;;;;5031629;28;20486;-88
2021/05/15 09:06:29;;;;;;;8.30;5.03;;;;;;;;;;5028170;28;20410;-88
2021/05/15 09:08:55;;;;;;;6.10;4.72;;;;;;;;;;5030012;28;20132;-88
2021/05/15 09:11:21;;;;;;;6.18;4.38;;;;;;;;;;5046281;28;20347;-89
2021/05/15 09:13:54;;;;;;;7.00;5.13;;;;;;;;;;5037964;28;20029;-89
2021/05/15 09:16:21;;;;;;;7.57;5.03;;;;;;;;;;5028523;28;20061;-88
2021/05/15 09:18:47;;;;;;;6.50;4.22;;;;;;;;;;5033375;28;20119;-87
2021/05/15 09:21:25;;;;;;;9.27;4.40;;;;;;;;;;5032766;28;20044;-89
2021/05/15 09:23:51;;;;;;;7.97;4.45;;;;;;;;;;5041406;28;20021;-87
2021/05/15 09:26:23;;;;;;;5.20;3.63;;;;;;;;;;5052857;28;20048;-89
2021/05/15 09:28:57;;;;;;;5.65;4.32;;;;;;;;;;5034761;28;20029;-88
2021/05/15 09:31:30;;;;;;;4.47;3.67;;;;;;;;;;5027316;28;20060;-87
2021/05/15 09:33:57;;;;;;;11.23;4.75;;;;;;;;;;5035169;28;20040;-88
2021/05/15 09:36:24;;;;;;;6.20;4.05;;;;;;;;;;5024968;28;20044;-87
2021/05/15 09:39:07;;;;;;;5.18;4.10;;;;;;;;;;5037302;28;20385;-86
2021/05/15 09:41:41;;;;;;;6.15;4.55;;;;;;;;;;5028698;28;20052;-86
2021/05/15 09:44:10;;;;;;;5.20;4.03;;;;;;;;;;5034582;28;20024;-86
2021/05/15 09:46:36;;;;;;;6.13;4.00;;;;;;;;;;5026189;28;20471;-86
2021/05/15 09:49:03;;;;;;;5.70;4.18;;;;;;;;;;5027787;28;20048;-87
2021/05/15 09:51:29;;;;;;;5.38;4.13;;;;;;;;;;5027006;28;20119;-86
2021/05/15 09:53:55;;;;;;;5.15;3.75;;;;;;;;;;5021466;28;20025;-87
2021/05/15 09:56:32;;;;;;;6.50;4.30;;;;;;;;;;5044845;28;20591;-87
2021/05/15 09:58:58;;;;;;;9.55;4.20;;;;;;;;;;5017633;28;20025;-87
2021/05/15 10:01:24;;;;;;;5.75;3.33;;;;;;;;;;5046528;28;20025;-88
2021/05/15 10:03:58;;;;;;;6.05;2.83;;;;;;;;;;5031193;28;20027;-88
2021/05/15 10:06:24;;;;;;;3.85;2.15;;;;;;;;;;5020013;28;20021;-87
2021/05/15 10:08:50;;;;;;;4.55;2.30;;;;;;;;;;5033537;28;20044;-87
2021/05/15 10:11:17;;;;;;;3.15;2.20;;;;;;;;;;5034554;28;20026;-87
2021/05/15 10:13:43;;;;;;;3.42;1.85;;;;;;;;;;5051618;28;20021;-87
2021/05/15 10:16:09;;;;;;;3.63;2.30;;;;;;;;;;5034146;28;20544;-87
2021/05/15 10:18:35;;;;;;;4.57;2.20;;;;;;;;;;5052352;28;20469;-88
2021/05/15 10:21:02;;;;;;;3.47;2.63;;;;;;;;;;5033365;28;20021;-87
2021/05/15 10:23:30;;;;;;;2.13;1.70;;;;;;;;;;5025133;28;20018;-88
2021/05/15 10:26:01;;;;;;;1.95;1.38;;;;;;;;;;5036552;28;20063;-87
2021/05/15 10:28:28;;;;;;;3.70;1.55;;;;;;;;;;5070047;28;20031;-88
2021/05/15 10:31:04;;;;;;;1.27;1.10;;;;;;;;;;5057031;28;20029;-87
2021/05/15 10:33:31;;;;;;;2.22;1.00;;;;;;;;;;5071384;28;20090;-88
2021/05/15 10:35:57;;;;;;;1.13;0.90;;;;;;;;;;5072157;28;20475;-87
2021/05/15 10:38:30;;;;;;;4.53;1.25;;;;;;;;;;5071858;28;20562;-88
2021/05/15 10:40:56;;;;;;;1.40;1.10;;;;;;;;;;5055346;28;20040;-87
2021/05/15 10:43:32;;;;;;;2.47;1.00;;;;;;;;;;5062271;28;20029;-88
2021/05/15 10:45:58;;;;;;;3.25;0.77;;;;;;;;;;5071452;28;20059;-87
2021/05/15 10:48:28;;;;;;;1.52;0.90;;;;;;;;;;5070327;28;20060;-87
2021/05/15 10:50:58;;;;;;;1.40;0.73;;;;;;;;;;5058621;28;20032;-87
2021/05/15 10:53:26;;;;;;;1.90;0.70;;;;;;;;;;5060380;28;20431;-89
2021/05/15 10:56:04;;;;;;;0.80;0.40;;;;;;;;;;5056640;28;20025;-88
2021/05/15 10:58:41;;;;;;;2.00;0.50;;;;;;;;;;5054620;28;20480;-88
2021/05/15 11:01:08;;;;;;;2.58;0.60;;;;;;;;;;5066529;28;20027;-87
2021/05/15 11:03:35;;;;;;;2.63;0.60;;;;;;;;;;5051274;28;20021;-86
2021/05/15 11:06:11;;;;;;;1.58;0.60;;;;;;;;;;5064253;28;20140;-87
2021/05/15 11:08:38;;;;;;;1.20;0.60;;;;;;;;;;5058484;28;20033;-86
2021/05/15 11:11:12;;;;;;;2.05;0.55;;;;;;;;;;5068201;28;20024;-86
2021/05/15 11:13:48;;;;;;;0.75;0.50;;;;;;;;;;5065500;28;20048;-85
2021/05/15 11:16:14;;;;;;;3.17;0.70;;;;;;;;;;5065234;28;20032;-85
2021/05/15 11:18:40;;;;;;;11.90;1.23;;;;;;;;;;5062338;28;20027;-85
2021/05/15 11:21:07;;;;;;;7.10;1.23;;;;;;;;;;5064995;28;20411;-85
2021/05/15 11:23:36;;;;;;;2.17;0.75;;;;;;;;;;5060022;28;20023;-86
2021/05/15 11:26:03;;;;;;;1.50;0.82;;;;;;;;;;5060403;28;20048;-88
2021/05/15 11:28:30;;;;;;;6.40;0.90;;;;;;;;;;5056979;28;20067;-86
2021/05/15 11:30:56;;;;;;;1.95;0.50;;;;;;;;;;5058716;28;20024;-84
2021/05/15 11:33:23;;;;;;;1.90;0.63;;;;;;;;;;5057460;28;20025;-87
2021/05/15 11:35:50;;;;;;;1.92;0.50;;;;;;;;;;5057241;28;20135;-87
2021/05/15 11:38:23;;;;;;;1.85;0.50;;;;;;;;;;5067263;28;20024;-87
2021/05/15 11:40:49;;;;;;;0.73;0.20;;;;;;;;;;5057353;28;20055;-86
2021/05/15 11:43:23;;;;;;;1.73;0.32;;;;;;;;;;5065896;28;20041;-87
2021/05/15 11:45:53;;;;;;;3.95;0.45;;;;;;;;;;5064352;28;20020;-88
2021/05/15 11:48:23;;;;;;;1.45;0.20;;;;;;;;;;5063561;28;20035;-88
2021/05/15 11:51:05;;;;;;;0.40;0.30;;;;;;;;;;5064626;28;20039;-86
2021/05/15 11:53:32;;;;;;;3.60;0.40;;;;;;;;;;5057090;28;20037;-87
2021/05/15 11:55:59;;;;;;;1.67;0.35;;;;;;;;;;5067216;28;20039;-87
2021/05/15 11:58:25;;;;;;;0.95;0.20;;;;;;;;;;5068204;28;20036;-86
2021/05/15 12:00:51;;;;;;;0.28;0.10;;;;;;;;;;5070959;28;20021;-87
2021/05/15 12:03:24;;;;;;;2.08;0.50;;;;;;;;;;5059220;28;20518;-88
2021/05/15 12:05:51;;;;;;;1.52;0.38;;;;;;;;;;5064759;28;20502;-88
2021/05/15 12:08:17;;;;;;;3.53;0.60;;;;;;;;;;5059786;28;20025;-90
2021/05/15 12:10:44;;;;;;;4.63;0.47;;;;;;;;;;5062699;28;20067;-91
2021/05/15 12:13:12;;;;;;;2.40;0.60;;;;;;;;;;5059436;28;20129;-90
2021/05/15 12:15:39;;;;;;;0.65;0.20;;;;;;;;;;5060921;28;20057;-90
2021/05/15 12:18:05;;;;;;;1.70;0.40;;;;;;;;;;5074928;28;20098;-90
2021/05/15 12:20:34;;;;;;;1.48;0.25;;;;;;;;;;5059590;28;20025;-89
2021/05/15 12:23:15;;;;;;;1.95;0.40;;;;;;;;;;5063091;28;20534;-90
2021/05/15 12:25:43;;;;;;;1.75;0.50;;;;;;;;;;5063282;28;20066;-93
2021/05/15 12:28:19;;;;;;;1.48;0.40;;;;;;;;;;5027527;28;20033;-92
2021/05/15 12:30:45;;;;;;;2.33;0.40;;;;;;;;;;5033419;28;20017;-91
2021/05/15 12:33:11;;;;;;;1.23;0.30;;;;;;;;;;5037411;28;20470;-91
2021/05/15 12:35:37;;;;;;;1.17;0.40;;;;;;;;;;5028720;28;20033;-91
2021/05/15 12:38:07;;;;;;;0.93;0.30;;;;;;;;;;5027757;28;20017;-91
2021/05/15 12:40:34;;;;;;;0.38;0.20;;;;;;;;;;5041164;28;20017;-90
2021/05/15 12:43:10;;;;;;;3.20;0.40;;;;;;;;;;5037066;28;20132;-87
2021/05/15 12:45:40;;;;;;;1.10;0.43;;;;;;;;;;5027712;28;20515;-91
2021/05/15 12:48:36;;;;;;;0.50;0.15;;;;;;;;;;5017732;28;20029;-89
2021/05/15 12:51:03;;;;;;;4.15;0.30;;;;;;;;;;5030934;28;20025;-89
2021/05/15 12:53:29;;;;;;;3.42;0.28;;;;;;;;;;5029293;28;20087;-88
2021/05/15 12:55:55;;;;;;;1.50;0.43;;;;;;;;;;5045786;28;20021;-88
2021/05/15 12:58:21;;;;;;;1.13;0.20;;;;;;;;;;5032092;28;20037;-88
2021/05/15 13:01:03;;;;;;;1.27;0.30;;;;;;;;;;5054509;28;20024;-86
2021/05/15 13:03:29;;;;;;;0.57;0.40;;;;;;;;;;5031258;28;20052;-88
2021/05/15 13:05:55;;;;;;;0.73;0.20;;;;;;;;;;5029107;28;20108;-89
2021/05/15 13:08:47;;;;;;;3.67;0.22;;;;;;;;;;5022451;28;20037;-90
2021/05/15 13:11:15;;;;;;;1.65;0.65;;;;;;;;;;4998015;28;20136;-90
2021/05/15 13:13:42;;;;;;;0.90;0.35;;;;;;;;;;5031545;28;20025;-89
2021/05/15 13:16:09;;;;;;;3.05;0.50;;;;;;;;;;5037117;28;20105;-90
2021/05/15 13:18:35;;;;;;;0.40;0.20;;;;;;;;;;5041378;28;20034;-89
2021/05/15 13:21:01;;;;;;;1.27;0.28;;;;;;;;;;5017786;28;20087;-91
2021/05/15 13:23:27;;;;;;;0.75;0.32;;;;;;;;;;5033338;28;20059;-90
2021/05/15 13:25:53;;;;;;;0.50;0.30;;;;;;;;;;5036276;28;20048;-88
2021/05/15 13:28:19;;;;;;;1.25;0.38;;;;;;;;;;5072083;28;20026;-90
2021/05/15 13:30:45;;;;;;;1.77;0.30;;;;;;;;;;5065730;28;20033;-90
2021/05/15 13:33:11;;;;;;;1.00;0.17;;;;;;;;;;5053777;28;20017;-90
2021/05/15 13:35:37;;;;;;;0.75;0.10;;;;;;;;;;5067811;28;20029;-89
2021/05/15 13:38:04;;;;;;;0.32;0.10;;;;;;;;;;5061732;28;20029;-90
2021/05/15 13:40:30;;;;;;;0.47;0.20;;;;;;;;;;5056705;28;20086;-91
2021/05/15 13:42:56;;;;;;;0.28;0.20;;;;;;;;;;5057457;28;20025;-88
2021/05/15 13:45:22;;;;;;;1.08;0.20;;;;;;;;;;5053571;28;20078;-88
2021/05/15 13:47:51;;;;;;;0.63;0.20;;;;;;;;;;5068895;28;20067;-87
2021/05/15 13:50:18;;;;;;;0.63;0.10;;;;;;;;;;5071624;28;20116;-86
2021/05/15 13:52:44;;;;;;;0.15;0.10;;;;;;;;;;5058919;28;20033;-86
2021/05/15 13:55:10;;;;;;;1.90;0.25;;;;;;;;;;5055766;28;20411;-87
2021/05/15 13:57:36;;;;;;;0.73;0.20;;;;;;;;;;5057762;28;20075;-87
2021/05/15 14:00:04;;;;;;;2.30;0.17;;;;;;;;;;5083509;28;20056;-87
2021/05/15 14:02:30;;;;;;;2.10;0.30;;;;;;;;;;5069314;28;20032;-87
2021/05/15 14:04:56;;;;;;;0.10;0.00;;;;;;;;;;5060366;28;20021;-87
2021/05/15 14:07:22;;;;;;;0.98;0.20;;;;;;;;;;5069343;28;20054;-88
2021/05/15 14:09:48;;;;;;;0.68;0.10;;;;;;;;;;5053213;28;20522;-88
2021/05/15 14:12:14;;;;;;;1.85;0.20;;;;;;;;;;5051575;28;20021;-88
2021/05/15 14:14:40;;;;;;;0.13;0.10;;;;;;;;;;5071086;28;20035;-88
2021/05/15 14:17:08;;;;;;;1.08;0.30;;;;;;;;;;5059448;28;20020;-88
2021/05/15 14:19:34;;;;;;;1.00;0.20;;;;;;;;;;5053016;28;20036;-88
2021/05/15 14:22:00;;;;;;;0.77;0.20;;;;;;;;;;5052046;28;20051;-88
2021/05/15 14:24:26;;;;;;;0.98;0.10;;;;;;;;;;5053271;28;20119;-88
2021/05/15 14:26:52;;;;;;;0.30;0.10;;;;;;;;;;5061033;28;20052;-88
2021/05/15 14:29:18;;;;;;;0.45;0.10;;;;;;;;;;5067505;28;20028;-88
2021/05/15 14:31:44;;;;;;;2.25;0.17;;;;;;;;;;5065012;28;20028;-88
2021/05/15 14:34:10;;;;;;;0.10;0.10;;;;;;;;;;5056286;28;20143;-90
2021/05/15 14:36:36;;;;;;;0.15;0.10;;;;;;;;;;5061602;28;20039;-87
2021/05/15 14:39:03;;;;;;;0.50;0.20;;;;;;;;;;5065806;28;20072;-89
2021/05/15 14:41:29;;;;;;;2.00;0.20;;;;;;;;;;5063707;28;20076;-87
2021/05/15 14:43:55;;;;;;;0.52;0.10;;;;;;;;;;5050978;28;20036;-88